createdAt,value
2019-04-20T06:45:19.570Z,9.00
2019-04-20T06:50:56.434Z,8.20
2019-04-20T06:56:47.018Z,8.50
2019-04-20T07:08:08.068Z,8.40
2019-04-20T07:13:30.743Z,8.00
2019-04-20T07:19:06.020Z,7.60
2019-04-20T07:24:30.403Z,7.60
2019-04-20T07:29:51.296Z,7.90
2019-04-20T07:35:19.481Z,7.00
2019-04-20T07:40:35.341Z,6.70
2019-04-20T07:45:55.161Z,6.90
2019-04-20T07:51:03.446Z,7.70
2019-04-20T07:56:36.877Z,6.20
2019-04-20T08:01:52.457Z,7.30
2019-04-20T08:06:51.787Z,7.60
2019-04-20T08:12:25.471Z,7.70
2019-04-20T08:17:44.111Z,8.60
2019-04-20T08:22:51.468Z,7.20
2019-04-20T08:27:40.352Z,6.60
2019-04-20T08:32:53.778Z,6.60
2019-04-20T08:38:36.483Z,8.30
2019-04-20T08:43:37.568Z,7.90
2019-04-20T08:48:40.304Z,8.00
2019-04-20T08:53:51.617Z,8.60
2019-04-20T08:58:43.313Z,8.50
2019-04-20T09:03:49.510Z,7.90
2019-04-20T09:09:11.498Z,8.40
2019-04-20T09:14:08.658Z,7.80
2019-04-20T09:19:12.626Z,8.80
2019-04-20T09:24:43.068Z,8.30
2019-04-20T09:29:42.429Z,9.90
2019-04-20T09:35:05.887Z,8.10
2019-04-20T09:40:20.022Z,7.60
2019-04-20T09:45:23.042Z,7.30
2019-04-20T09:50:47.422Z,7.90
2019-04-20T09:56:01.397Z,8.50
2019-04-20T10:01:13.030Z,8.70
2019-04-20T10:06:08.016Z,9.50
2019-04-20T10:11:03.410Z,8.30
2019-04-20T10:15:59.353Z,7.80
2019-04-20T10:20:55.529Z,8.50
2019-04-20T10:25:49.212Z,9.40
2019-04-20T10:30:44.295Z,10.60
2019-04-20T10:35:37.530Z,9.80
2019-04-20T10:40:45.846Z,14.70
2019-04-20T10:45:47.306Z,11.90
2019-04-20T10:50:41.391Z,9.80
2019-04-20T10:55:36.003Z,9.00
2019-04-20T11:00:31.788Z,9.20
2019-04-20T11:05:26.951Z,8.80
2019-04-20T11:10:29.198Z,7.50
2019-04-20T11:15:36.640Z,6.20
2019-04-20T11:20:33.090Z,7.20
2019-04-20T11:25:26.629Z,7.70
2019-04-20T11:30:24.282Z,7.10
2019-04-20T11:35:30.191Z,6.70
2019-04-20T11:40:31.282Z,5.60
2019-04-20T11:45:33.431Z,6.60
2019-04-20T11:50:25.262Z,7.90
2019-04-20T11:55:18.643Z,6.30
2019-04-20T12:00:14.819Z,5.80
2019-04-20T12:05:24.543Z,7.10
2019-04-20T12:10:25.958Z,5.60
2019-04-20T12:15:22.888Z,3.50
2019-04-20T12:20:18.385Z,4.10
2019-04-20T12:25:14.697Z,4.10
2019-04-20T12:30:08.364Z,5.00
2019-04-20T12:35:04.288Z,5.60
2019-04-20T12:39:58.278Z,5.30
2019-04-20T12:44:51.451Z,4.40
2019-04-20T12:49:45.908Z,4.80
2019-04-20T12:54:44.935Z,5.90
2019-04-20T12:59:42.522Z,4.60
2019-04-20T13:04:44.049Z,5.40
2019-04-20T13:09:38.594Z,5.90
2019-04-20T13:14:33.104Z,5.50
2019-04-20T13:19:27.435Z,5.70
2019-04-20T13:24:22.954Z,6.20
2019-04-20T13:29:17.579Z,5.20
2019-04-20T13:34:11.197Z,5.60
2019-04-20T13:39:06.530Z,5.00
2019-04-20T13:44:06.239Z,6.20
2019-04-20T13:49:01.304Z,6.80
2019-04-20T13:53:56.084Z,6.50
2019-04-20T13:58:52.402Z,5.80
2019-04-20T14:03:47.528Z,5.90
2019-04-20T14:08:41.733Z,6.50
2019-04-20T14:13:44.938Z,6.90
2019-04-20T14:18:51.062Z,6.50
2019-04-20T14:23:43.673Z,7.30
2019-04-20T14:28:37.218Z,6.40
2019-04-20T14:33:33.178Z,5.60
2019-04-20T14:38:31.118Z,6.30
2019-04-20T14:43:22.933Z,5.90
2019-04-20T14:48:19.085Z,6.50
2019-04-20T14:53:14.076Z,5.90
2019-04-20T14:58:08.427Z,5.60
2019-04-20T15:03:01.774Z,4.50
2019-04-20T15:07:54.867Z,5.60
2019-04-20T15:12:59.938Z,5.60
2019-04-20T15:17:57.228Z,5.90
2019-04-20T15:22:51.542Z,5.90
2019-04-20T15:27:46.511Z,5.40
2019-04-20T15:32:40.825Z,4.80
2019-04-20T15:37:33.577Z,8.00
2019-04-20T15:42:28.084Z,5.70
2019-04-20T15:47:22.102Z,6.30
2019-04-20T15:52:24.432Z,6.00
2019-04-20T15:57:33.103Z,6.50
2019-04-20T16:02:29.331Z,5.80
2019-04-20T16:07:23.938Z,6.30
2019-04-20T16:12:18.730Z,7.40
2019-04-20T16:17:13.059Z,8.50
2019-04-20T16:22:07.785Z,6.70
2019-04-20T16:27:02.555Z,6.10
2019-04-20T16:31:54.783Z,7.30
2019-04-20T16:36:54.674Z,7.00
2019-04-20T16:41:50.678Z,7.50
2019-04-20T16:46:42.888Z,5.70
2019-04-20T16:51:36.590Z,6.30
2019-04-20T16:56:30.634Z,6.70
2019-04-20T17:01:27.284Z,5.60
2019-04-20T17:06:22.260Z,6.40
2019-04-20T17:11:16.368Z,5.90
2019-04-20T17:16:10.499Z,6.60
2019-04-20T17:21:16.451Z,6.70
2019-04-20T17:26:18.778Z,6.20
2019-04-20T17:31:18.025Z,6.80
2019-04-20T17:36:42.662Z,7.70
2019-04-20T17:41:54.133Z,6.70
2019-04-20T17:47:07.148Z,7.80
2019-04-20T17:52:39.898Z,6.60
2019-04-20T17:57:32.994Z,6.80
2019-04-20T18:02:49.115Z,6.10
2019-04-20T18:08:14.758Z,6.90
2019-04-20T18:13:14.061Z,6.70
2019-04-20T18:18:34.937Z,7.10
2019-04-20T18:23:41.079Z,7.10
2019-04-20T18:29:19.709Z,7.20
2019-04-20T18:34:13.083Z,7.50
2019-04-20T18:39:28.835Z,7.80
2019-04-20T18:45:15.823Z,7.40
2019-04-20T18:50:21.146Z,7.40
2019-04-20T18:55:40.840Z,7.50
2019-04-20T19:00:58.975Z,7.70
2019-04-20T19:06:05.475Z,7.30
2019-04-20T19:11:14.321Z,8.30
2019-04-20T19:16:31.125Z,7.00
2019-04-20T19:21:37.846Z,8.20
2019-04-20T19:26:44.799Z,7.50
2019-04-20T19:32:19.251Z,8.10
2019-04-20T19:37:29.567Z,8.00
2019-04-20T19:42:51.776Z,9.10
2019-04-20T19:48:17.256Z,8.30
2019-04-20T19:53:46.463Z,8.40
2019-04-20T19:59:02.461Z,8.30
2019-04-20T20:04:09.768Z,8.50
2019-04-20T20:09:18.190Z,8.30
2019-04-20T20:14:34.176Z,8.70
2019-04-20T20:20:14.026Z,8.50
2019-04-20T20:25:09.799Z,8.20
2019-04-20T20:30:24.297Z,8.80
2019-04-20T20:35:46.840Z,8.30
2019-04-20T20:41:17.812Z,7.30
2019-04-20T20:46:38.322Z,7.40
2019-04-20T20:52:11.507Z,7.10
2019-04-20T20:57:40.769Z,7.20
2019-04-20T21:02:59.191Z,7.30
2019-04-20T21:08:13.933Z,7.00
2019-04-20T21:13:33.175Z,6.50
2019-04-20T21:19:12.791Z,6.00
2019-04-20T21:24:23.202Z,6.10
2019-04-20T21:29:47.011Z,5.90
2019-04-20T21:35:16.094Z,6.00
2019-04-20T21:40:41.317Z,6.00
2019-04-20T21:46:14.332Z,6.20
2019-04-20T21:51:46.478Z,6.00
2019-04-20T21:57:16.425Z,6.20
2019-04-20T22:02:46.580Z,6.00
2019-04-20T22:08:20.166Z,6.00
2019-04-20T22:13:38.552Z,6.00
2019-04-20T22:19:27.328Z,5.80
2019-04-20T22:25:13.697Z,6.30
2019-04-20T22:30:41.952Z,6.00
2019-04-20T22:57:35.949Z,6.90
2019-04-20T23:03:00.745Z,6.90
2019-04-20T23:08:26.543Z,7.60
